Flight Track Log - Related Links

Times and Time Zones

All times are in EST time to prevent confusion due to time zone crossing. See the N830QS flight status page for this flight to view local times or setup timezone preferences in your user account.

Time Position Orientation Groundspeed Altitude Reporting Facility
EST Latitude Longitude Course Direction KTS MPH feet Rate Location/Type
Fri 06:46:19 PM 33.9833 -83.9500 134° Southeast 168 193 1,900  Level Atlanta TRACON
Fri 06:48:39 PM 33.8839 -83.8261 134° Southeast 234 269 9,200 3,180 Climbing Atlanta Center
Fri 06:49:39 PM 33.8731 -83.7286 98° East 258 297 12,500 2,350 Climbing Atlanta Center
Fri 06:50:39 PM 33.8853 -83.6008 83° East 347 399 13,900 750 Climbing Atlanta Center
Fri 06:51:39 PM 33.8828 -83.4758 91° East 368 423 14,000 650 Climbing Atlanta Center
Fri 06:52:39 PM 33.8653 -83.3508 100° East 373 429 15,200 1,300 Climbing Atlanta Center
Fri 06:53:39 PM 33.8478 -83.2258 100° East 373 429 16,600 1,350 Climbing Atlanta Center
Fri 06:54:39 PM 33.8325 -83.1111 99° East 381 438 17,900 1,300 Climbing Atlanta Center
Fri 06:55:39 PM 33.8125 -82.9811 100° East 392 451 19,200 1,400 Climbing Atlanta Center
Fri 06:56:39 PM 33.7967 -82.8464 98° East 397 457 20,700 900 Climbing Atlanta Center
Fri 06:57:39 PM 33.7767 -82.7092 100° East 408 470 21,000 150 Climbing Atlanta Center
Fri 06:58:39 PM 33.7583 -82.5722 99° East 413 475 21,000  Level Atlanta Center
Fri 06:59:39 PM 33.6925 -82.4708 128° Southeast 376 433 21,000  Level Atlanta Center
Fri 07:00:39 PM 33.6117 -82.3725 135° Southeast 389 448 21,000  Level Atlanta Center
Fri 07:02:33 PM 33.4797 -82.2028 133° Southeast 368 423 21,000  Level Jacksonville Center
Fri 07:03:33 PM 33.4125 -82.1211 135° Southeast 368 423 21,000  Level Jacksonville Center
Fri 07:04:33 PM 33.3408 -82.0322 134° Southeast 368 423 21,000  Level Jacksonville Center
Fri 07:05:33 PM 33.2714 -81.9486 135° Southeast 368 423 21,000  Level Jacksonville Center
Fri 07:06:33 PM 33.1978 -81.8600 135° Southeast 368 423 21,000  Level Jacksonville Center
Fri 07:07:33 PM 33.1261 -81.7739 135° Southeast 368 423 21,000 -500 Level Jacksonville Center
Fri 07:08:33 PM 33.0628 -81.6931 133° Southeast 368 423 20,000 -1,100 Descending Jacksonville Center
Fri 07:09:33 PM 32.9825 -81.6000 136° Southeast 368 423 18,800 -1,050 Descending Jacksonville Center
Fri 07:10:33 PM 32.9083 -81.5119 135° Southeast 368 423 17,900 -1,000 Descending Jacksonville Center
Fri 07:11:33 PM 32.8344 -81.4264 136° Southeast 368 423 16,800 -1,100 Descending Jacksonville Center
Fri 07:12:33 PM 32.7686 -81.3436 133° Southeast 363 418 15,700 -1,100 Descending Jacksonville Center
Fri 07:13:33 PM 32.7008 -81.2633 135° Southeast 358 412 14,600 -1,100 Descending Jacksonville Center
Fri 07:14:33 PM 32.6247 -81.1758 136° Southeast 346 398 13,500 -1,250 Descending Jacksonville Center
Fri 07:15:33 PM 32.5775 -81.0903 123° Southeast 346 398 12,100 -1,800 Descending Jacksonville Center
Fri 07:16:33 PM 32.5383 -80.9753 112° Southeast 338 389 9,900 -2,050 Descending Jacksonville Center
Fri 07:17:33 PM 32.5078 -80.8897 113° Southeast 297 342 8,000 -1,900 Descending Jacksonville Center
Fri 07:18:33 PM 32.4856 -80.8189 110° East 256 295 6,100 -1,900 Descending Jacksonville Center
Fri 07:19:33 PM 32.4947 -80.7375 82° East 228 262 4,200 -1,550 Descending Jacksonville Center
Fri 07:20:33 PM 32.5039 -80.6608 82° East 230 265 3,000 -950 Descending Jacksonville Center
Fri 07:21:33 PM 32.4803 -80.6244 128° Southeast 161 185 2,300 -600 Descending Jacksonville Center
Fri 07:22:33 PM 32.4278 -80.6158 172° South 166 191 1,800 -250 Descending Jacksonville Center
Fri 07:23:33 PM 32.3861 -80.6144 178° South 184 212 1,800  Level Jacksonville Center
Fri 07:24:33 PM 32.3364 -80.6378 202° Southwest 173 199 1,800 -100 Level Jacksonville Center
Fri 07:25:33 PM 32.2911 -80.6636 206° Southwest 179 206 1,600 -550 Descending Jacksonville Center
Fri 07:26:33 PM 32.2642 -80.6789 206° Southwest 167 192 700 -550 Descending Jacksonville Center
Fri 07:27:33 PM 32.2144 -80.7097 208° Southwest 167 192 500 -200 Descending Jacksonville Center
Fri 07:29:00 PM 32.2244 -80.6975 90° East  Level Estimated
Fri 07:36:00 PM 32.2244 -80.6975 90° East  Level Estimated
Fri 07:37:00 PM 32.2244 -80.6975 90° East  Level Estimated
Fri 07:38:00 PM 32.2244 -80.6975 90° East  Level Estimated

Login

Don't have an account? Register now (free) for customized features, flight alerts, and more!